Amelia, Virginia
Current Conditions -  °F | °C
As of 4:35 AM on Thursday 23 Oct 2014 (Local Time) from KW81 Reporting Station
Clear Clear  
Wind Chill: 45°   Ceiling: Unl
Heat Index: 47°   Visibility: 10mi
Dew Point: 40°   Wind: 6mph
Humidity: 76%   Direction: 290°WNW
Pressure: 29.94"   Gusts: NA
Location:  37.3498°N, 77.9661°W
Report Text: KW81 230835Z AUTO 29005KT 10SM CLR 09/05 A2994 RMK AO1 T00860045
Loading
Personal Weather Stations






























Interactive Weather Map New forecast layout! Learn more

10-Day Weather Forecast

Advertisements
Track Severe Weather on mobile